UPS3928 KBOS-KPHL
Flight info
| Callsign | UPS3928 |
|---|---|
| Flight time | N/A |
| Altitude | 34000 |
| Route | SSOXS7 SSOXS Q167 RIFLE Q439 BRIGS JIIMS4 |
| Aircraft | B77L/H-SDE1E2E3FGHIJ2J3J4J5M1RWXY/LB1D1 |
Departure
| Time | 2026-05-03 23:12 |
|---|---|
| Airport | Boston Logan International Airport (KBOS) |
Arrival
| Time | N/A |
|---|---|
| Airport | Philadelphia International Airport (KPHL) |
| Time | Latitude | Longitude | Altitude | Speed | Heading |
|---|---|---|---|---|---|
| 2026-05-03 21:44 | 42.37303 | -71.02703 | 30 ft | 0 kts | 220° |
| 2026-05-03 22:54 | 42.37308 | -71.02698 | 29 ft | 2 kts | 216° |
| 2026-05-03 22:54 | 42.37321 | -71.02684 | 29 ft | 2 kts | 209° |
| 2026-05-03 22:54 | 42.37336 | -71.02674 | 28 ft | 2 kts | 201° |
| 2026-05-03 22:55 | 42.37352 | -71.02668 | 28 ft | 2 kts | 177° |
| 2026-05-03 22:55 | 42.37367 | -71.02674 | 28 ft | 2 kts | 141° |
| 2026-05-03 22:55 | 42.37376 | -71.02684 | 28 ft | 1 kts | 129° |
| 2026-05-03 23:01 | 42.37374 | -71.02681 | 28 ft | 4 kts | 129° |
| 2026-05-03 23:01 | 42.37346 | -71.02635 | 25 ft | 7 kts | 129° |
| 2026-05-03 23:01 | 42.37306 | -71.02569 | 33 ft | 15 kts | 129° |
| 2026-05-03 23:02 | 42.37184 | -71.02395 | 30 ft | 31 kts | 134° |
| 2026-05-03 23:02 | 42.37165 | -71.02235 | 30 ft | 16 kts | 52° |
| 2026-05-03 23:02 | 42.37234 | -71.02106 | 30 ft | 17 kts | 80° |
| 2026-05-03 23:02 | 42.37231 | -71.01993 | 30 ft | 3 kts | 92° |
| 2026-05-03 23:03 | 42.37274 | -71.01905 | 30 ft | 20 kts | 46° |
| 2026-05-03 23:03 | 42.37255 | -71.01774 | 30 ft | 15 kts | 133° |
| 2026-05-03 23:03 | 42.37179 | -71.01666 | 30 ft | 21 kts | 136° |
| 2026-05-03 23:03 | 42.37043 | -71.01486 | 30 ft | 28 kts | 135° |
| 2026-05-03 23:04 | 42.36905 | -71.01299 | 30 ft | 28 kts | 135° |
| 2026-05-03 23:04 | 42.36798 | -71.01163 | 30 ft | 17 kts | 146° |
| 2026-05-03 23:04 | 42.36681 | -71.01165 | 30 ft | 18 kts | 195° |
| 2026-05-03 23:04 | 42.36563 | -71.01224 | 30 ft | 20 kts | 200° |
| 2026-05-03 23:05 | 42.36418 | -71.01294 | 30 ft | 21 kts | 198° |
| 2026-05-03 23:05 | 42.36311 | -71.01255 | 30 ft | 20 kts | 126° |
| 2026-05-03 23:05 | 42.36239 | -71.01081 | 30 ft | 24 kts | 115° |
| 2026-05-03 23:05 | 42.36168 | -71.00867 | 30 ft | 23 kts | 114° |
| 2026-05-03 23:06 | 42.36158 | -71.00838 | 30 ft | 0 kts | 115° |
| 2026-05-03 23:07 | 42.36150 | -71.00815 | 30 ft | 6 kts | 115° |
| 2026-05-03 23:07 | 42.36107 | -71.00668 | 31 ft | 29 kts | 109° |
| 2026-05-03 23:07 | 42.36026 | -71.00350 | 30 ft | 28 kts | 109° |
| 2026-05-03 23:08 | 42.35965 | -71.00123 | 30 ft | 25 kts | 121° |
| 2026-05-03 23:08 | 42.35911 | -71.00025 | 28 ft | 0 kts | 132° |
| 2026-05-03 23:08 | 42.35910 | -71.00024 | 29 ft | 0 kts | 132° |
| 2026-05-03 23:09 | 42.35890 | -70.99994 | 30 ft | 14 kts | 134° |
| 2026-05-03 23:09 | 42.35774 | -70.99832 | 30 ft | 25 kts | 135° |
| 2026-05-03 23:09 | 42.35646 | -70.99668 | 30 ft | 25 kts | 135° |
| 2026-05-03 23:10 | 42.35529 | -70.99511 | 30 ft | 17 kts | 135° |
| 2026-05-03 23:10 | 42.35493 | -70.99437 | 30 ft | 14 kts | 103° |
| 2026-05-03 23:10 | 42.35493 | -70.99406 | 30 ft | 0 kts | 83° |
| 2026-05-03 23:10 | 42.35496 | -70.99372 | 30 ft | 12 kts | 83° |
| 2026-05-03 23:11 | 42.35550 | -70.99304 | 30 ft | 12 kts | 351° |
| 2026-05-03 23:11 | 42.35594 | -70.99342 | 30 ft | 3 kts | 318° |
| 2026-05-03 23:11 | 42.35782 | -70.99591 | 30 ft | 81 kts | 315° |
| 2026-05-03 23:11 | 42.36380 | -71.00392 | 33 ft | 157 kts | 314° |
| 2026-05-03 23:12 | 42.37198 | -71.01502 | 676 ft | 164 kts | 313° |
| 2026-05-03 23:12 | 42.38049 | -71.02673 | 1330 ft | 186 kts | 311° |
| 2026-05-03 23:12 | 42.38916 | -71.03945 | 2075 ft | 193 kts | 300° |
| 2026-05-03 23:12 | 42.39584 | -71.05666 | 2303 ft | 220 kts | 294° |
| 2026-05-03 23:13 | 42.40342 | -71.07632 | 2720 ft | 245 kts | 296° |
| 2026-05-03 23:13 | 42.40888 | -71.09786 | 3500 ft | 247 kts | 268° |
| 2026-05-03 23:13 | 42.40619 | -71.11427 | 4236 ft | 247 kts | 243° |
| 2026-05-03 23:13 | 42.39586 | -71.13291 | 5109 ft | 251 kts | 233° |
| 2026-05-03 23:14 | 42.38522 | -71.15194 | 6023 ft | 254 kts | 235° |
| 2026-05-03 23:14 | 42.37484 | -71.17142 | 7038 ft | 254 kts | 235° |
| 2026-05-03 23:14 | 42.36308 | -71.18871 | 7839 ft | 258 kts | 215° |
| 2026-05-03 23:14 | 42.34611 | -71.19727 | 8756 ft | 266 kts | 190° |
| 2026-05-03 23:15 | 42.32745 | -71.19596 | 9755 ft | 273 kts | 169° |
| 2026-05-03 23:15 | 42.30940 | -71.18742 | 10432 ft | 283 kts | 165° |
| 2026-05-03 23:15 | 42.29015 | -71.17770 | 10737 ft | 308 kts | 165° |
| 2026-05-03 23:15 | 42.26914 | -71.16724 | 10947 ft | 334 kts | 165° |
| 2026-05-03 23:16 | 42.24754 | -71.15283 | 11091 ft | 361 kts | 147° |
| 2026-05-03 23:16 | 42.22818 | -71.12978 | 11511 ft | 379 kts | 142° |
| 2026-05-03 23:16 | 42.20873 | -71.10590 | 12228 ft | 387 kts | 143° |
| 2026-05-03 23:16 | 42.18830 | -71.08162 | 13089 ft | 393 kts | 144° |
| 2026-05-03 23:17 | 42.16746 | -71.05731 | 13938 ft | 398 kts | 144° |
| 2026-05-03 23:17 | 42.14622 | -71.03295 | 14686 ft | 402 kts | 147° |
| 2026-05-03 23:17 | 42.12365 | -71.01041 | 15414 ft | 405 kts | 151° |
| 2026-05-03 23:17 | 42.10036 | -70.98914 | 16146 ft | 410 kts | 152° |
| 2026-05-03 23:18 | 42.07642 | -70.96768 | 16878 ft | 416 kts | 152° |
| 2026-05-03 23:18 | 42.05232 | -70.94589 | 17613 ft | 422 kts | 152° |
| 2026-05-03 23:18 | 42.02784 | -70.92344 | 18292 ft | 428 kts | 152° |
| 2026-05-03 23:18 | 42.00322 | -70.90061 | 18947 ft | 432 kts | 152° |
| 2026-05-03 23:19 | 41.97844 | -70.87751 | 19669 ft | 434 kts | 152° |
| 2026-05-03 23:19 | 41.95357 | -70.85430 | 20372 ft | 436 kts | 152° |
| 2026-05-03 23:19 | 41.92846 | -70.83091 | 21009 ft | 441 kts | 153° |
| 2026-05-03 23:19 | 41.90315 | -70.80739 | 21643 ft | 445 kts | 153° |
| 2026-05-03 23:20 | 41.87737 | -70.78456 | 22210 ft | 439 kts | 160° |
| 2026-05-03 23:20 | 41.84890 | -70.77172 | 22631 ft | 425 kts | 180° |
| 2026-05-03 23:20 | 41.82013 | -70.77177 | 23257 ft | 414 kts | 194° |
| 2026-05-03 23:20 | 41.79234 | -70.78012 | 23873 ft | 405 kts | 205° |
| 2026-05-03 23:21 | 41.76727 | -70.79625 | 24380 ft | 398 kts | 214° |
| 2026-05-03 23:21 | 41.74311 | -70.81497 | 24882 ft | 402 kts | 216° |
| 2026-05-03 23:21 | 41.71878 | -70.83400 | 25397 ft | 406 kts | 216° |
| 2026-05-03 23:21 | 41.69430 | -70.85289 | 25980 ft | 407 kts | 215° |
| 2026-05-03 23:22 | 41.64506 | -70.89010 | 27088 ft | 411 kts | 215° |
| 2026-05-03 23:22 | 41.61986 | -70.90893 | 27550 ft | 415 kts | 215° |
| 2026-05-03 23:22 | 41.59451 | -70.92786 | 28048 ft | 417 kts | 216° |
| 2026-05-03 23:23 | 41.57055 | -70.94926 | 28556 ft | 412 kts | 224° |
| 2026-05-03 23:23 | 41.54931 | -70.97429 | 29049 ft | 411 kts | 228° |
| 2026-05-03 23:23 | 41.52928 | -71.00159 | 29442 ft | 412 kts | 232° |
| 2026-05-03 23:23 | 41.51139 | -71.03143 | 29777 ft | 412 kts | 238° |
| 2026-05-03 23:24 | 41.47951 | -71.09566 | 29861 ft | 415 kts | 239° |
| 2026-05-03 23:24 | 41.44813 | -71.15938 | 29862 ft | 411 kts | 239° |
| 2026-05-03 23:25 | 41.41642 | -71.22284 | 29876 ft | 411 kts | 238° |
| 2026-05-03 23:25 | 41.38471 | -71.28593 | 29868 ft | 412 kts | 238° |
| 2026-05-03 23:26 | 41.35275 | -71.34934 | 29884 ft | 413 kts | 238° |
| 2026-05-03 23:26 | 41.32049 | -71.41310 | 29893 ft | 415 kts | 238° |
| 2026-05-03 23:27 | 41.28819 | -71.47684 | 29910 ft | 416 kts | 238° |
| 2026-05-03 23:27 | 41.25592 | -71.54039 | 29906 ft | 417 kts | 238° |
| 2026-05-03 23:28 | 41.22334 | -71.60445 | 29921 ft | 417 kts | 238° |
| 2026-05-03 23:28 | 41.19089 | -71.66813 | 29907 ft | 418 kts | 238° |
| 2026-05-03 23:29 | 41.15826 | -71.73206 | 29913 ft | 418 kts | 238° |
| 2026-05-03 23:29 | 41.12560 | -71.79593 | 29919 ft | 418 kts | 238° |
| 2026-05-03 23:30 | 41.09845 | -71.84910 | 29931 ft | 418 kts | 238° |
| 2026-05-03 23:30 | 41.06047 | -71.92337 | 29926 ft | 419 kts | 238° |
| 2026-05-03 23:31 | 41.03392 | -71.97770 | 29940 ft | 418 kts | 242° |
| 2026-05-03 23:31 | 41.00869 | -72.04646 | 29925 ft | 418 kts | 246° |
| 2026-05-03 23:32 | 40.98422 | -72.11642 | 29930 ft | 418 kts | 246° |
| 2026-05-03 23:32 | 40.95970 | -72.18585 | 29916 ft | 418 kts | 246° |
| 2026-05-03 23:33 | 40.93472 | -72.25555 | 29925 ft | 419 kts | 243° |